sensor_id;sensor_type;location;lat;lon;timestamp;temperature;humidity
66184;DHT22;52989;48.796;9.806;2022-11-04T00:01:17;10.80;99.90
66184;DHT22;52989;48.796;9.806;2022-11-04T00:03:42;10.80;99.90
66184;DHT22;52989;48.796;9.806;2022-11-04T00:06:08;10.70;99.90
66184;DHT22;52989;48.796;9.806;2022-11-04T00:08:33;10.50;99.90
66184;DHT22;52989;48.796;9.806;2022-11-04T00:10:59;10.90;99.90
66184;DHT22;52989;48.796;9.806;2022-11-04T00:13:44;10.70;99.90
66184;DHT22;52989;48.796;9.806;2022-11-04T00:16:10;11.20;99.90
66184;DHT22;52989;48.796;9.806;2022-11-04T00:18:54;10.80;99.90
66184;DHT22;52989;48.796;9.806;2022-11-04T00:21:20;10.80;99.90
66184;DHT22;52989;48.796;9.806;2022-11-04T00:24:04;10.90;99.90
66184;DHT22;52989;48.796;9.806;2022-11-04T00:26:48;10.80;99.90
66184;DHT22;52989;48.796;9.806;2022-11-04T00:29:32;10.60;99.90
66184;DHT22;52989;48.796;9.806;2022-11-04T00:31:58;10.60;99.90
66184;DHT22;52989;48.796;9.806;2022-11-04T00:34:41;10.60;99.90
66184;DHT22;52989;48.796;9.806;2022-11-04T00:37:07;10.50;99.90
66184;DHT22;52989;48.796;9.806;2022-11-04T00:39:32;10.90;99.90
66184;DHT22;52989;48.796;9.806;2022-11-04T00:41:58;10.50;99.90
66184;DHT22;52989;48.796;9.806;2022-11-04T00:44:23;10.40;99.90
66184;DHT22;52989;48.796;9.806;2022-11-04T00:46:49;10.90;99.90
66184;DHT22;52989;48.796;9.806;2022-11-04T00:49:14;10.50;99.90
66184;DHT22;52989;48.796;9.806;2022-11-04T00:51:40;10.30;99.90
66184;DHT22;52989;48.796;9.806;2022-11-04T00:54:05;10.20;99.90
66184;DHT22;52989;48.796;9.806;2022-11-04T00:56:31;10.20;99.90
66184;DHT22;52989;48.796;9.806;2022-11-04T00:58:59;10.10;99.90
66184;DHT22;52989;48.796;9.806;2022-11-04T01:01:25;10.20;99.90
66184;DHT22;52989;48.796;9.806;2022-11-04T01:03:51;10.10;99.90
66184;DHT22;52989;48.796;9.806;2022-11-04T01:06:17;10.20;99.90
66184;DHT22;52989;48.796;9.806;2022-11-04T01:08:43;10.20;99.90
66184;DHT22;52989;48.796;9.806;2022-11-04T01:11:09;10.20;99.90
66184;DHT22;52989;48.796;9.806;2022-11-04T01:13:35;10.70;99.90
66184;DHT22;52989;48.796;9.806;2022-11-04T01:16:03;10.60;99.90
66184;DHT22;52989;48.796;9.806;2022-11-04T01:18:29;10.30;99.90
66184;DHT22;52989;48.796;9.806;2022-11-04T01:20:59;10.40;99.90
66184;DHT22;52989;48.796;9.806;2022-11-04T01:23:24;10.30;99.90
66184;DHT22;52989;48.796;9.806;2022-11-04T01:25:50;10.50;99.90
66184;DHT22;52989;48.796;9.806;2022-11-04T01:28:15;10.70;99.90
66184;DHT22;52989;48.796;9.806;2022-11-04T01:30:41;11.00;99.90
66184;DHT22;52989;48.796;9.806;2022-11-04T01:33:06;10.90;99.90
66184;DHT22;52989;48.796;9.806;2022-11-04T01:35:32;10.60;99.90
66184;DHT22;52989;48.796;9.806;2022-11-04T01:37:57;10.80;99.90
66184;DHT22;52989;48.796;9.806;2022-11-04T01:40:24;10.60;99.90
66184;DHT22;52989;48.796;9.806;2022-11-04T01:42:50;10.70;99.90
66184;DHT22;52989;48.796;9.806;2022-11-04T01:45:16;10.70;99.90
66184;DHT22;52989;48.796;9.806;2022-11-04T01:47:42;10.90;99.90
66184;DHT22;52989;48.796;9.806;2022-11-04T01:50:10;10.70;99.90
66184;DHT22;52989;48.796;9.806;2022-11-04T01:55:05;10.60;99.90
66184;DHT22;52989;48.796;9.806;2022-11-04T01:57:35;10.60;99.90
66184;DHT22;52989;48.796;9.806;2022-11-04T02:00:03;10.40;99.90
66184;DHT22;52989;48.796;9.806;2022-11-04T02:02:29;10.40;99.90
66184;DHT22;52989;48.796;9.806;2022-11-04T02:04:55;10.30;99.90
66184;DHT22;52989;48.796;9.806;2022-11-04T02:07:21;10.60;99.90
66184;DHT22;52989;48.796;9.806;2022-11-04T02:09:47;10.70;99.90
66184;DHT22;52989;48.796;9.806;2022-11-04T02:12:13;10.70;99.90
66184;DHT22;52989;48.796;9.806;2022-11-04T02:14:57;10.70;99.90
66184;DHT22;52989;48.796;9.806;2022-11-04T02:17:36;10.70;99.90
66184;DHT22;52989;48.796;9.806;2022-11-04T02:20:10;10.70;99.90
66184;DHT22;52989;48.796;9.806;2022-11-04T02:22:44;10.70;99.90
66184;DHT22;52989;48.796;9.806;2022-11-04T02:27:53;10.40;99.90
66184;DHT22;52989;48.796;9.806;2022-11-04T02:30:23;10.50;99.90
66184;DHT22;52989;48.796;9.806;2022-11-04T02:35:42;10.60;99.90
66184;DHT22;52989;48.796;9.806;2022-11-04T02:40:42;10.90;99.90
66184;DHT22;52989;48.796;9.806;2022-11-04T02:43:23;10.40;99.90
66184;DHT22;52989;48.796;9.806;2022-11-04T02:45:50;10.50;99.90
66184;DHT22;52989;48.796;9.806;2022-11-04T02:48:24;10.70;99.90
66184;DHT22;52989;48.796;9.806;2022-11-04T02:53:28;10.40;99.90
66184;DHT22;52989;48.796;9.806;2022-11-04T02:55:56;10.60;99.90
66184;DHT22;52989;48.796;9.806;2022-11-04T02:58:45;10.70;99.90
66184;DHT22;52989;48.796;9.806;2022-11-04T03:01:14;10.80;99.90
66184;DHT22;52989;48.796;9.806;2022-11-04T03:03:44;10.40;99.90
66184;DHT22;52989;48.796;9.806;2022-11-04T03:06:10;10.20;99.90
66184;DHT22;52989;48.796;9.806;2022-11-04T03:08:39;9.90;99.90
66184;DHT22;52989;48.796;9.806;2022-11-04T03:11:22;9.80;99.90
66184;DHT22;52989;48.796;9.806;2022-11-04T03:13:49;9.90;99.90
66184;DHT22;52989;48.796;9.806;2022-11-04T03:16:18;9.80;99.90
66184;DHT22;52989;48.796;9.806;2022-11-04T03:21:23;10.10;99.90
66184;DHT22;52989;48.796;9.806;2022-11-04T03:23:49;10.10;99.90
66184;DHT22;52989;48.796;9.806;2022-11-04T03:31:22;9.70;99.90
66184;DHT22;52989;48.796;9.806;2022-11-04T03:33:49;9.70;99.90
66184;DHT22;52989;48.796;9.806;2022-11-04T03:36:15;10.20;99.90
66184;DHT22;52989;48.796;9.806;2022-11-04T03:38:41;9.90;99.90
66184;DHT22;52989;48.796;9.806;2022-11-04T03:41:09;10.10;99.90
66184;DHT22;52989;48.796;9.806;2022-11-04T03:43:37;9.80;99.90
66184;DHT22;52989;48.796;9.806;2022-11-04T03:46:05;10.50;99.90
66184;DHT22;52989;48.796;9.806;2022-11-04T03:48:30;10.20;99.90
66184;DHT22;52989;48.796;9.806;2022-11-04T03:50:57;10.00;99.90
66184;DHT22;52989;48.796;9.806;2022-11-04T03:53:22;10.10;99.90
66184;DHT22;52989;48.796;9.806;2022-11-04T04:03:45;10.50;99.90
66184;DHT22;52989;48.796;9.806;2022-11-04T04:06:17;10.20;99.90
66184;DHT22;52989;48.796;9.806;2022-11-04T04:11:20;10.50;99.90
66184;DHT22;52989;48.796;9.806;2022-11-04T04:14:03;10.10;99.90
66184;DHT22;52989;48.796;9.806;2022-11-04T04:17:04;10.30;99.90
66184;DHT22;52989;48.796;9.806;2022-11-04T04:19:22;10.50;99.90
66184;DHT22;52989;48.796;9.806;2022-11-04T04:21:52;10.30;99.90
66184;DHT22;52989;48.796;9.806;2022-11-04T04:24:21;10.10;99.90
66184;DHT22;52989;48.796;9.806;2022-11-04T04:27:07;10.10;99.90
66184;DHT22;52989;48.796;9.806;2022-11-04T04:29:51;10.20;99.90
66184;DHT22;52989;48.796;9.806;2022-11-04T04:32:19;10.00;99.90
66184;DHT22;52989;48.796;9.806;2022-11-04T04:34:45;9.90;99.90
66184;DHT22;52989;48.796;9.806;2022-11-04T04:37:13;9.80;99.90
66184;DHT22;52989;48.796;9.806;2022-11-04T04:39:44;9.70;99.90
66184;DHT22;52989;48.796;9.806;2022-11-04T04:42:33;9.50;99.90
66184;DHT22;52989;48.796;9.806;2022-11-04T04:47:49;9.30;99.90
66184;DHT22;52989;48.796;9.806;2022-11-04T04:50:16;9.30;99.90
66184;DHT22;52989;48.796;9.806;2022-11-04T04:52:43;9.30;99.90
66184;DHT22;52989;48.796;9.806;2022-11-04T04:55:09;9.30;99.90
66184;DHT22;52989;48.796;9.806;2022-11-04T04:57:35;9.20;99.90
66184;DHT22;52989;48.796;9.806;2022-11-04T05:00:01;9.20;99.90
66184;DHT22;52989;48.796;9.806;2022-11-04T05:02:27;9.20;99.90
66184;DHT22;52989;48.796;9.806;2022-11-04T05:04:53;9.20;99.90
66184;DHT22;52989;48.796;9.806;2022-11-04T05:07:21;9.20;99.90
66184;DHT22;52989;48.796;9.806;2022-11-04T05:09:47;9.20;99.90
66184;DHT22;52989;48.796;9.806;2022-11-04T05:12:12;9.20;99.90
66184;DHT22;52989;48.796;9.806;2022-11-04T05:14:38;9.20;99.90
66184;DHT22;52989;48.796;9.806;2022-11-04T05:17:05;9.10;99.90
66184;DHT22;52989;48.796;9.806;2022-11-04T05:19:30;9.00;99.90
66184;DHT22;52989;48.796;9.806;2022-11-04T05:21:56;9.10;99.90
66184;DHT22;52989;48.796;9.806;2022-11-04T05:24:22;9.10;99.90
66184;DHT22;52989;48.796;9.806;2022-11-04T05:26:47;9.00;99.90
66184;DHT22;52989;48.796;9.806;2022-11-04T05:29:13;8.90;99.90
66184;DHT22;52989;48.796;9.806;2022-11-04T05:31:38;8.80;99.90
66184;DHT22;52989;48.796;9.806;2022-11-04T05:34:05;8.80;99.90
66184;DHT22;52989;48.796;9.806;2022-11-04T05:36:31;8.80;99.90
66184;DHT22;52989;48.796;9.806;2022-11-04T05:38:59;8.70;99.90
66184;DHT22;52989;48.796;9.806;2022-11-04T05:41:24;8.70;99.90
66184;DHT22;52989;48.796;9.806;2022-11-04T05:43:50;8.70;99.90
66184;DHT22;52989;48.796;9.806;2022-11-04T05:46:16;8.70;99.90
66184;DHT22;52989;48.796;9.806;2022-11-04T05:48:42;8.60;99.90
66184;DHT22;52989;48.796;9.806;2022-11-04T05:51:12;8.60;99.90
66184;DHT22;52989;48.796;9.806;2022-11-04T05:53:40;8.60;99.90
66184;DHT22;52989;48.796;9.806;2022-11-04T05:56:06;8.70;99.90
66184;DHT22;52989;48.796;9.806;2022-11-04T05:58:32;8.70;99.90
66184;DHT22;52989;48.796;9.806;2022-11-04T06:03:35;8.50;99.90
66184;DHT22;52989;48.796;9.806;2022-11-04T06:06:01;8.50;99.90
66184;DHT22;52989;48.796;9.806;2022-11-04T06:08:26;8.40;99.90
66184;DHT22;52989;48.796;9.806;2022-11-04T06:10:51;8.40;99.90
66184;DHT22;52989;48.796;9.806;2022-11-04T06:13:17;8.40;99.90
66184;DHT22;52989;48.796;9.806;2022-11-04T06:15:42;8.30;99.90
66184;DHT22;52989;48.796;9.806;2022-11-04T06:18:08;8.20;99.90
66184;DHT22;52989;48.796;9.806;2022-11-04T06:20:33;8.20;99.90
66184;DHT22;52989;48.796;9.806;2022-11-04T06:22:59;8.20;99.90
66184;DHT22;52989;48.796;9.806;2022-11-04T06:25:24;8.30;99.90
66184;DHT22;52989;48.796;9.806;2022-11-04T06:27:49;8.20;99.90
66184;DHT22;52989;48.796;9.806;2022-11-04T06:30:15;8.20;99.90
66184;DHT22;52989;48.796;9.806;2022-11-04T06:32:40;8.30;99.90
66184;DHT22;52989;48.796;9.806;2022-11-04T06:35:06;8.30;99.90
66184;DHT22;52989;48.796;9.806;2022-11-04T06:37:33;8.30;99.90
66184;DHT22;52989;48.796;9.806;2022-11-04T06:39:59;8.30;99.90
66184;DHT22;52989;48.796;9.806;2022-11-04T06:42:24;8.30;99.90
66184;DHT22;52989;48.796;9.806;2022-11-04T06:44:51;8.60;99.90
66184;DHT22;52989;48.796;9.806;2022-11-04T06:47:16;8.50;99.90
66184;DHT22;52989;48.796;9.806;2022-11-04T06:49:42;8.40;99.90
66184;DHT22;52989;48.796;9.806;2022-11-04T06:52:07;8.30;99.90
66184;DHT22;52989;48.796;9.806;2022-11-04T06:54:33;8.40;99.90
66184;DHT22;52989;48.796;9.806;2022-11-04T06:56:59;8.30;99.90
66184;DHT22;52989;48.796;9.806;2022-11-04T06:59:25;8.30;99.90
66184;DHT22;52989;48.796;9.806;2022-11-04T07:01:50;8.20;99.90
66184;DHT22;52989;48.796;9.806;2022-11-04T07:04:18;8.20;99.90
66184;DHT22;52989;48.796;9.806;2022-11-04T07:06:44;8.50;99.90
66184;DHT22;52989;48.796;9.806;2022-11-04T07:09:10;9.10;99.90
66184;DHT22;52989;48.796;9.806;2022-11-04T07:11:35;9.60;99.90
66184;DHT22;52989;48.796;9.806;2022-11-04T07:14:01;9.50;99.90
66184;DHT22;52989;48.796;9.806;2022-11-04T07:16:27;9.20;99.90
66184;DHT22;52989;48.796;9.806;2022-11-04T07:18:53;8.80;99.90
66184;DHT22;52989;48.796;9.806;2022-11-04T07:21:18;8.60;99.90
66184;DHT22;52989;48.796;9.806;2022-11-04T07:23:44;8.70;99.90
66184;DHT22;52989;48.796;9.806;2022-11-04T07:26:10;8.70;99.90
66184;DHT22;52989;48.796;9.806;2022-11-04T07:28:35;8.60;99.90
66184;DHT22;52989;48.796;9.806;2022-11-04T07:31:01;8.60;99.90
66184;DHT22;52989;48.796;9.806;2022-11-04T07:33:27;8.60;99.90
66184;DHT22;52989;48.796;9.806;2022-11-04T07:35:53;8.60;99.90
66184;DHT22;52989;48.796;9.806;2022-11-04T07:38:19;8.60;99.90
66184;DHT22;52989;48.796;9.806;2022-11-04T07:40:45;8.60;99.90
66184;DHT22;52989;48.796;9.806;2022-11-04T07:43:11;8.60;99.90
66184;DHT22;52989;48.796;9.806;2022-11-04T07:45:37;8.70;99.90
66184;DHT22;52989;48.796;9.806;2022-11-04T07:48:03;8.80;99.90
66184;DHT22;52989;48.796;9.806;2022-11-04T07:50:28;8.80;99.90
66184;DHT22;52989;48.796;9.806;2022-11-04T07:52:54;8.70;99.90
66184;DHT22;52989;48.796;9.806;2022-11-04T07:55:19;8.70;99.90
66184;DHT22;52989;48.796;9.806;2022-11-04T07:57:45;8.70;99.90
66184;DHT22;52989;48.796;9.806;2022-11-04T08:00:11;8.80;99.90
66184;DHT22;52989;48.796;9.806;2022-11-04T08:02:37;8.90;99.90
66184;DHT22;52989;48.796;9.806;2022-11-04T08:05:02;9.00;99.90
66184;DHT22;52989;48.796;9.806;2022-11-04T08:07:30;9.00;99.90
66184;DHT22;52989;48.796;9.806;2022-11-04T08:09:56;9.00;99.90
66184;DHT22;52989;48.796;9.806;2022-11-04T08:12:21;9.00;99.90
66184;DHT22;52989;48.796;9.806;2022-11-04T08:14:48;8.90;99.90
66184;DHT22;52989;48.796;9.806;2022-11-04T08:17:14;9.00;99.90
66184;DHT22;52989;48.796;9.806;2022-11-04T08:19:39;8.90;99.90
66184;DHT22;52989;48.796;9.806;2022-11-04T08:22:05;9.00;99.90
66184;DHT22;52989;48.796;9.806;2022-11-04T08:24:32;9.20;99.90
66184;DHT22;52989;48.796;9.806;2022-11-04T08:26:58;9.60;99.90
66184;DHT22;52989;48.796;9.806;2022-11-04T08:29:23;9.80;99.90
66184;DHT22;52989;48.796;9.806;2022-11-04T08:31:49;9.70;99.90
66184;DHT22;52989;48.796;9.806;2022-11-04T08:34:14;10.10;99.90
66184;DHT22;52989;48.796;9.806;2022-11-04T08:36:43;9.80;99.90
66184;DHT22;52989;48.796;9.806;2022-11-04T08:39:08;9.60;99.90
66184;DHT22;52989;48.796;9.806;2022-11-04T08:41:34;9.90;99.90
66184;DHT22;52989;48.796;9.806;2022-11-04T08:44:01;9.70;99.90
66184;DHT22;52989;48.796;9.806;2022-11-04T08:46:31;9.60;99.90
66184;DHT22;52989;48.796;9.806;2022-11-04T08:48:56;9.60;99.90
66184;DHT22;52989;48.796;9.806;2022-11-04T08:51:23;9.80;99.90
66184;DHT22;52989;48.796;9.806;2022-11-04T08:53:49;9.80;99.90
66184;DHT22;52989;48.796;9.806;2022-11-04T08:56:16;9.70;99.90
66184;DHT22;52989;48.796;9.806;2022-11-04T08:58:42;9.70;99.90
66184;DHT22;52989;48.796;9.806;2022-11-04T09:01:08;10.00;99.90
66184;DHT22;52989;48.796;9.806;2022-11-04T09:03:35;10.30;99.90
66184;DHT22;52989;48.796;9.806;2022-11-04T09:06:03;10.30;99.90
66184;DHT22;52989;48.796;9.806;2022-11-04T09:08:29;10.60;99.90
66184;DHT22;52989;48.796;9.806;2022-11-04T09:10:54;10.40;99.90
66184;DHT22;52989;48.796;9.806;2022-11-04T09:13:20;10.30;99.90
66184;DHT22;52989;48.796;9.806;2022-11-04T09:15:45;10.10;99.90
66184;DHT22;52989;48.796;9.806;2022-11-04T09:18:13;10.20;99.90
66184;DHT22;52989;48.796;9.806;2022-11-04T09:20:39;10.30;99.90
66184;DHT22;52989;48.796;9.806;2022-11-04T09:23:06;10.30;99.90
66184;DHT22;52989;48.796;9.806;2022-11-04T09:25:32;10.40;99.90
66184;DHT22;52989;48.796;9.806;2022-11-04T09:27:58;10.60;99.90
66184;DHT22;52989;48.796;9.806;2022-11-04T09:30:24;10.60;99.90
66184;DHT22;52989;48.796;9.806;2022-11-04T09:32:49;10.50;99.90
66184;DHT22;52989;48.796;9.806;2022-11-04T09:35:15;10.50;99.90
66184;DHT22;52989;48.796;9.806;2022-11-04T09:37:42;10.50;99.90
66184;DHT22;52989;48.796;9.806;2022-11-04T09:40:10;10.70;99.90
66184;DHT22;52989;48.796;9.806;2022-11-04T09:42:49;10.60;99.90
66184;DHT22;52989;48.796;9.806;2022-11-04T09:45:17;10.90;99.90
66184;DHT22;52989;48.796;9.806;2022-11-04T09:47:44;10.90;99.90
66184;DHT22;52989;48.796;9.806;2022-11-04T09:50:24;11.10;99.90
66184;DHT22;52989;48.796;9.806;2022-11-04T09:53:04;11.10;99.90
66184;DHT22;52989;48.796;9.806;2022-11-04T09:55:34;11.20;99.90
66184;DHT22;52989;48.796;9.806;2022-11-04T09:58:03;11.20;99.90
66184;DHT22;52989;48.796;9.806;2022-11-04T10:00:29;11.50;99.90
66184;DHT22;52989;48.796;9.806;2022-11-04T10:08:00;11.30;99.90
66184;DHT22;52989;48.796;9.806;2022-11-04T10:13:13;11.30;99.90
66184;DHT22;52989;48.796;9.806;2022-11-04T10:16:00;11.70;99.90
66184;DHT22;52989;48.796;9.806;2022-11-04T10:21:10;11.30;99.90
66184;DHT22;52989;48.796;9.806;2022-11-04T10:23:46;11.20;99.90
66184;DHT22;52989;48.796;9.806;2022-11-04T10:26:24;11.50;99.90
66184;DHT22;52989;48.796;9.806;2022-11-04T10:28:54;11.70;99.90
66184;DHT22;52989;48.796;9.806;2022-11-04T10:31:21;12.30;99.90
66184;DHT22;52989;48.796;9.806;2022-11-04T10:33:52;12.40;99.90
66184;DHT22;52989;48.796;9.806;2022-11-04T10:36:19;12.50;99.90
66184;DHT22;52989;48.796;9.806;2022-11-04T10:38:46;12.10;99.90
66184;DHT22;52989;48.796;9.806;2022-11-04T10:43:38;11.90;99.90
66184;DHT22;52989;48.796;9.806;2022-11-04T10:46:08;11.60;99.90
66184;DHT22;52989;48.796;9.806;2022-11-04T10:48:41;11.70;99.90
66184;DHT22;52989;48.796;9.806;2022-11-04T10:51:09;12.10;99.90
66184;DHT22;52989;48.796;9.806;2022-11-04T10:53:35;12.10;99.90
66184;DHT22;52989;48.796;9.806;2022-11-04T10:58:41;12.00;99.90
66184;DHT22;52989;48.796;9.806;2022-11-04T11:01:21;12.10;99.90
66184;DHT22;52989;48.796;9.806;2022-11-04T11:03:46;12.30;99.90
66184;DHT22;52989;48.796;9.806;2022-11-04T11:06:13;12.10;99.90
66184;DHT22;52989;48.796;9.806;2022-11-04T11:08:39;12.20;99.90
66184;DHT22;52989;48.796;9.806;2022-11-04T11:11:06;12.70;99.90
66184;DHT22;52989;48.796;9.806;2022-11-04T11:13:35;12.50;99.90
66184;DHT22;52989;48.796;9.806;2022-11-04T11:16:09;12.40;99.90
66184;DHT22;52989;48.796;9.806;2022-11-04T11:18:36;12.30;99.90
66184;DHT22;52989;48.796;9.806;2022-11-04T11:21:07;12.20;99.80
66184;DHT22;52989;48.796;9.806;2022-11-04T11:23:34;12.20;99.90
66184;DHT22;52989;48.796;9.806;2022-11-04T11:26:00;12.20;99.90
66184;DHT22;52989;48.796;9.806;2022-11-04T11:28:26;12.10;99.90
66184;DHT22;52989;48.796;9.806;2022-11-04T11:30:55;12.10;99.90
66184;DHT22;52989;48.796;9.806;2022-11-04T11:33:22;12.30;99.90
66184;DHT22;52989;48.796;9.806;2022-11-04T11:35:50;12.20;98.30
66184;DHT22;52989;48.796;9.806;2022-11-04T11:38:17;12.10;99.90
66184;DHT22;52989;48.796;9.806;2022-11-04T11:40:43;12.10;99.10
66184;DHT22;52989;48.796;9.806;2022-11-04T11:43:16;12.20;98.70
66184;DHT22;52989;48.796;9.806;2022-11-04T11:45:45;12.10;99.90
66184;DHT22;52989;48.796;9.806;2022-11-04T11:48:27;11.80;99.90
66184;DHT22;52989;48.796;9.806;2022-11-04T11:50:54;11.90;98.60
66184;DHT22;52989;48.796;9.806;2022-11-04T11:53:24;12.10;98.00
66184;DHT22;52989;48.796;9.806;2022-11-04T11:58:34;12.00;99.30
66184;DHT22;52989;48.796;9.806;2022-11-04T12:01:11;12.20;99.90
66184;DHT22;52989;48.796;9.806;2022-11-04T12:03:40;11.80;99.90
66184;DHT22;52989;48.796;9.806;2022-11-04T12:08:55;12.10;99.90
66184;DHT22;52989;48.796;9.806;2022-11-04T12:13:51;12.20;99.90
66184;DHT22;52989;48.796;9.806;2022-11-04T12:16:20;12.50;99.90
66184;DHT22;52989;48.796;9.806;2022-11-04T12:21:22;12.40;99.60
66184;DHT22;52989;48.796;9.806;2022-11-04T12:26:38;12.60;99.90
66184;DHT22;52989;48.796;9.806;2022-11-04T12:31:50;12.30;98.20
66184;DHT22;52989;48.796;9.806;2022-11-04T12:37:11;12.40;98.50
66184;DHT22;52989;48.796;9.806;2022-11-04T12:47:42;12.80;96.40
66184;DHT22;52989;48.796;9.806;2022-11-04T13:00:42;13.10;96.40
66184;DHT22;52989;48.796;9.806;2022-11-04T13:03:15;12.50;97.20
66184;DHT22;52989;48.796;9.806;2022-11-04T13:06:02;12.40;97.00
66184;DHT22;52989;48.796;9.806;2022-11-04T13:08:33;12.30;97.30
66184;DHT22;52989;48.796;9.806;2022-11-04T13:11:11;12.30;97.20
66184;DHT22;52989;48.796;9.806;2022-11-04T13:13:57;12.80;98.40
66184;DHT22;52989;48.796;9.806;2022-11-04T13:16:24;12.50;95.50
66184;DHT22;52989;48.796;9.806;2022-11-04T13:18:49;12.40;96.20
66184;DHT22;52989;48.796;9.806;2022-11-04T13:21:16;12.40;95.20
66184;DHT22;52989;48.796;9.806;2022-11-04T13:23:51;12.30;96.20
66184;DHT22;52989;48.796;9.806;2022-11-04T13:26:18;12.40;94.80
66184;DHT22;52989;48.796;9.806;2022-11-04T13:28:47;12.50;96.70
66184;DHT22;52989;48.796;9.806;2022-11-04T13:36:43;12.00;97.50
66184;DHT22;52989;48.796;9.806;2022-11-04T13:39:16;11.90;98.50
66184;DHT22;52989;48.796;9.806;2022-11-04T13:41:53;12.10;97.80
66184;DHT22;52989;48.796;9.806;2022-11-04T13:44:23;12.70;97.40
66184;DHT22;52989;48.796;9.806;2022-11-04T13:46:50;12.60;96.10
66184;DHT22;52989;48.796;9.806;2022-11-04T13:49:32;12.60;95.00
66184;DHT22;52989;48.796;9.806;2022-11-04T13:52:06;12.50;95.30
66184;DHT22;52989;48.796;9.806;2022-11-04T13:54:54;12.40;94.40
66184;DHT22;52989;48.796;9.806;2022-11-04T13:57:19;12.10;96.70
66184;DHT22;52989;48.796;9.806;2022-11-04T14:02:39;12.20;97.30
66184;DHT22;52989;48.796;9.806;2022-11-04T14:18:46;11.40;98.30
66184;DHT22;52989;48.796;9.806;2022-11-04T14:21:13;11.30;99.60
66184;DHT22;52989;48.796;9.806;2022-11-04T14:23:40;11.20;99.90
66184;DHT22;52989;48.796;9.806;2022-11-04T14:26:06;11.20;99.90
66184;DHT22;52989;48.796;9.806;2022-11-04T14:28:33;11.40;99.90
66184;DHT22;52989;48.796;9.806;2022-11-04T14:31:03;11.40;99.90
66184;DHT22;52989;48.796;9.806;2022-11-04T14:36:14;11.10;99.90
66184;DHT22;52989;48.796;9.806;2022-11-04T14:38:40;11.00;99.90
66184;DHT22;52989;48.796;9.806;2022-11-04T14:41:13;10.80;99.90
66184;DHT22;52989;48.796;9.806;2022-11-04T14:43:42;10.80;99.90
66184;DHT22;52989;48.796;9.806;2022-11-04T14:46:09;10.80;99.90
66184;DHT22;52989;48.796;9.806;2022-11-04T14:48:36;10.70;99.90
66184;DHT22;52989;48.796;9.806;2022-11-04T14:51:16;10.70;99.90
66184;DHT22;52989;48.796;9.806;2022-11-04T14:53:42;10.70;99.90
66184;DHT22;52989;48.796;9.806;2022-11-04T14:58:36;10.70;99.90
66184;DHT22;52989;48.796;9.806;2022-11-04T15:01:02;10.80;99.90
66184;DHT22;52989;48.796;9.806;2022-11-04T15:03:32;10.80;99.90
66184;DHT22;52989;48.796;9.806;2022-11-04T15:05:59;10.80;99.90
66184;DHT22;52989;48.796;9.806;2022-11-04T15:13:24;11.20;99.90
66184;DHT22;52989;48.796;9.806;2022-11-04T15:15:49;11.00;99.90
66184;DHT22;52989;48.796;9.806;2022-11-04T15:18:20;10.90;99.90
66184;DHT22;52989;48.796;9.806;2022-11-04T15:20:50;11.00;99.90
66184;DHT22;52989;48.796;9.806;2022-11-04T15:23:36;10.80;99.90
66184;DHT22;52989;48.796;9.806;2022-11-04T15:26:03;10.50;99.90
66184;DHT22;52989;48.796;9.806;2022-11-04T15:28:32;10.30;99.90
66184;DHT22;52989;48.796;9.806;2022-11-04T15:31:05;10.30;99.90
66184;DHT22;52989;48.796;9.806;2022-11-04T15:33:34;10.30;99.90
66184;DHT22;52989;48.796;9.806;2022-11-04T15:36:00;10.20;99.90
66184;DHT22;52989;48.796;9.806;2022-11-04T15:38:27;10.10;99.90
66184;DHT22;52989;48.796;9.806;2022-11-04T15:40:53;10.00;99.90
66184;DHT22;52989;48.796;9.806;2022-11-04T15:43:19;9.90;99.90
66184;DHT22;52989;48.796;9.806;2022-11-04T15:51:04;9.70;99.90
66184;DHT22;52989;48.796;9.806;2022-11-04T15:53:35;9.60;99.90
66184;DHT22;52989;48.796;9.806;2022-11-04T15:56:02;9.60;99.90
66184;DHT22;52989;48.796;9.806;2022-11-04T15:58:28;9.60;99.90
66184;DHT22;52989;48.796;9.806;2022-11-04T16:00:55;9.60;99.90
66184;DHT22;52989;48.796;9.806;2022-11-04T16:03:21;9.50;99.90
66184;DHT22;52989;48.796;9.806;2022-11-04T16:06:02;9.50;99.90
66184;DHT22;52989;48.796;9.806;2022-11-04T16:08:28;9.40;99.90
66184;DHT22;52989;48.796;9.806;2022-11-04T16:13:39;9.30;99.90
66184;DHT22;52989;48.796;9.806;2022-11-04T16:16:06;9.30;99.90
66184;DHT22;52989;48.796;9.806;2022-11-04T16:21:00;9.30;99.90
66184;DHT22;52989;48.796;9.806;2022-11-04T16:23:26;9.30;99.90
66184;DHT22;52989;48.796;9.806;2022-11-04T16:25:58;9.20;99.90
66184;DHT22;52989;48.796;9.806;2022-11-04T16:28:27;9.10;99.90
66184;DHT22;52989;48.796;9.806;2022-11-04T16:31:00;9.10;99.90
66184;DHT22;52989;48.796;9.806;2022-11-04T16:33:26;9.20;99.90
66184;DHT22;52989;48.796;9.806;2022-11-04T16:35:51;9.20;99.90
66184;DHT22;52989;48.796;9.806;2022-11-04T16:38:16;9.30;99.90
66184;DHT22;52989;48.796;9.806;2022-11-04T16:40:43;9.30;99.90
66184;DHT22;52989;48.796;9.806;2022-11-04T16:43:10;9.20;99.90
66184;DHT22;52989;48.796;9.806;2022-11-04T16:45:36;9.20;99.90
66184;DHT22;52989;48.796;9.806;2022-11-04T16:48:05;9.10;99.90
66184;DHT22;52989;48.796;9.806;2022-11-04T16:50:32;8.90;99.90
66184;DHT22;52989;48.796;9.806;2022-11-04T16:52:57;8.90;99.90
66184;DHT22;52989;48.796;9.806;2022-11-04T16:55:23;8.90;99.90
66184;DHT22;52989;48.796;9.806;2022-11-04T16:57:59;8.80;99.90
66184;DHT22;52989;48.796;9.806;2022-11-04T17:00:26;8.80;99.90
66184;DHT22;52989;48.796;9.806;2022-11-04T17:02:52;8.90;99.90
66184;DHT22;52989;48.796;9.806;2022-11-04T17:05:18;8.90;99.90
66184;DHT22;52989;48.796;9.806;2022-11-04T17:07:43;8.70;99.90
66184;DHT22;52989;48.796;9.806;2022-11-04T17:10:11;8.70;99.90
66184;DHT22;52989;48.796;9.806;2022-11-04T17:12:38;8.70;99.90
66184;DHT22;52989;48.796;9.806;2022-11-04T17:15:04;8.60;99.90
66184;DHT22;52989;48.796;9.806;2022-11-04T17:17:29;8.70;99.90
66184;DHT22;52989;48.796;9.806;2022-11-04T17:19:55;8.70;99.90
66184;DHT22;52989;48.796;9.806;2022-11-04T17:22:20;8.60;99.90
66184;DHT22;52989;48.796;9.806;2022-11-04T17:24:46;8.60;99.90
66184;DHT22;52989;48.796;9.806;2022-11-04T17:27:11;8.80;99.90
66184;DHT22;52989;48.796;9.806;2022-11-04T17:29:37;9.00;99.90
66184;DHT22;52989;48.796;9.806;2022-11-04T17:32:03;9.00;99.90
66184;DHT22;52989;48.796;9.806;2022-11-04T17:34:29;8.90;99.90
66184;DHT22;52989;48.796;9.806;2022-11-04T17:36:54;8.70;99.90
66184;DHT22;52989;48.796;9.806;2022-11-04T17:39:20;8.70;99.90
66184;DHT22;52989;48.796;9.806;2022-11-04T17:41:45;8.70;99.90
66184;DHT22;52989;48.796;9.806;2022-11-04T17:44:30;8.80;99.90
66184;DHT22;52989;48.796;9.806;2022-11-04T17:46:55;8.90;99.90
66184;DHT22;52989;48.796;9.806;2022-11-04T17:49:23;8.60;99.90
66184;DHT22;52989;48.796;9.806;2022-11-04T17:51:50;8.60;99.90
66184;DHT22;52989;48.796;9.806;2022-11-04T17:54:18;8.90;99.90
66184;DHT22;52989;48.796;9.806;2022-11-04T17:56:43;8.80;99.90